Terminal Aerodrome Forecast
Issued by NWS Buffalo, NY

Home | Current Version | Previous Version | Text Only | Print | Product List | Glossary On
Versions: 1 2 3 4 5 6 7 8 9 10 11 12 13 14 15 16 17 18 19 20 21 22 23 24
000
FTUS41 KBUF 302300
TAFROC
TAF
KROC 302320Z 3100/3124 32004KT P6SM BKN060
     FM310200 VRB03KT P6SM BKN040
     FM311000 19004KT P6SM OVC030
     FM311300 18006KT P6SM OVC060
     FM312000 10005KT P6SM VCSH OVC040=

USA.gov is the U.S. government's official web portal to all federal, state and local government web resources and services.